Home   Weather   USA   State College   Past weeks
Flag for USA

Past Weather in State College, Pennsylvania, USA — Yesterday and Last 2 Weeks

Currently: 66 °F. Partly sunny. (Weather station: University Park Airport, USA). See more current weather

Past Weather in State College — Graph

°F

State College Temperature Yesterday

Maximum temperature yesterday: 67 °F (at 12:15 am)
Minimum temperature yesterday: 53 °F (at 11:55 pm)
Average temperature yesterday: 61 °F

High & Low Weather Summary for the Past Weeks

 TemperatureHumidityPressure
High88 °F (Jun 21, 2:53 pm)100% (Jun 8, 11:35 pm)30.24 "Hg (Jun 8, 11:35 pm)
Low44 °F (Jun 23, 5:15 am)25% (Jun 17, 4:53 pm)29.59 "Hg (Jun 21, 4:34 pm)
Average65 °F80%29.92 "Hg
* Reported Jun 8 1:53 pm — Jun 23 1:53 pm, State College. Weather by CustomWeather, © 2021

Note: Actual official high and low records may vary slightly from our data, if they occured in-between our weather recording intervals... More about our weather records

State College Weather History for the Previous 24 Hours

Scroll right to see more
 ConditionsComfort  
Time TempWeatherWind HumidityBarometerVisibility
1:53 pm
Wed, Jun 23
66 °FPartly sunny.5 mph43%30.24 "Hg10 mi
12:53 pm66 °FPartly sunny.5 mph43%30.24 "Hg10 mi
11:53 am66 °FScattered clouds.3 mph46%30.24 "Hg10 mi
10:53 am61 °FScattered clouds.5 mph55%30.22 "Hg10 mi
9:53 am61 °FScattered clouds.5 mph55%30.22 "Hg10 mi
8:53 am55 °FPassing clouds.No wind72%30.21 "Hg10 mi
7:53 am52 °FSunny.No wind82%30.20 "Hg10 mi
6:53 am48 °FSunny.No wind87%30.18 "Hg10 mi
5:53 am45 °FSunny.No wind93%30.15 "Hg10 mi
5:35 am45 °FClear.No wind97%30.15 "Hg10 mi
5:15 am44 °FClear.No wind97%30.14 "Hg10 mi
4:55 am45 °FClear.No wind95%30.13 "Hg10 mi
4:35 am45 °FClear.3 mph97%30.12 "Hg10 mi
4:15 am45 °FClear.No wind97%30.12 "Hg10 mi
3:55 am46 °FClear.No wind90%30.11 "Hg10 mi
3:35 am46 °FClear.3 mph93%30.11 "Hg10 mi
3:15 am46 °FClear.3 mph93%30.10 "Hg10 mi
2:55 am46 °FClear.3 mph92%30.10 "Hg10 mi
2:35 am47 °FClear.No wind84%30.09 "Hg10 mi
1:55 am46 °FClear.5 mph89%30.09 "Hg10 mi
1:35 am47 °FClear.3 mph86%30.08 "Hg10 mi
1:15 am47 °FPassing clouds.3 mph84%30.08 "Hg10 mi
12:55 am48 °FPassing clouds.3 mph84%30.07 "Hg10 mi
12:35 am49 °FClear.3 mph79%30.07 "Hg10 mi
12:15 am53 °FClear.3 mph65%30.06 "Hg10 mi
11:55 pm
Tue, Jun 22
53 °FClear.3 mph62%30.06 "Hg10 mi
11:35 pm54 °FClear.5 mph61%30.05 "Hg10 mi
11:15 pm54 °FClear.5 mph59%30.05 "Hg10 mi
10:55 pm55 °FClear.5 mph59%30.04 "Hg10 mi
10:35 pm56 °FClear.3 mph56%30.03 "Hg10 mi
10:15 pm56 °FPassing clouds.5 mph56%30.03 "Hg10 mi
9:53 pm55 °FPassing clouds.3 mph59%30.00 "Hg10 mi
8:53 pm57 °FPassing clouds.6 mph55%29.98 "Hg10 mi
7:53 pm61 °FScattered clouds.6 mph52%29.95 "Hg10 mi
6:53 pm63 °FPartly sunny.9 mph45%29.93 "Hg10 mi
5:53 pm64 °FPartly sunny.13 mph46%29.90 "Hg10 mi
4:53 pm61 °FPartly sunny.6 mph59%29.88 "Hg10 mi
3:53 pm61 °FPartly sunny.6 mph59%29.88 "Hg10 mi
Weather by CustomWeather, © 2021

See weather overview